sensor_id;sensor_type;location;lat;lon;timestamp;temperature;humidity
17007;DHT22;8620;51.168;4.154;2023-01-05T14:44:55;12.80;99.90
17007;DHT22;8620;51.168;4.154;2023-01-05T14:47:42;12.80;99.90
17007;DHT22;8620;51.168;4.154;2023-01-05T14:50:28;12.70;99.90
17007;DHT22;8620;51.168;4.154;2023-01-05T14:53:37;12.80;99.90
17007;DHT22;8620;51.168;4.154;2023-01-05T15:04:13;13.10;99.90
17007;DHT22;8620;51.168;4.154;2023-01-05T15:16:05;12.50;99.90
17007;DHT22;8620;51.168;4.154;2023-01-05T15:45:39;12.90;99.90
17007;DHT22;8620;51.168;4.154;2023-01-05T15:48:27;12.90;99.90
17007;DHT22;8620;51.168;4.154;2023-01-05T15:50:57;12.70;99.90
17007;DHT22;8620;51.168;4.154;2023-01-05T15:53:32;12.90;99.90
17007;DHT22;8620;51.168;4.154;2023-01-05T15:56:23;13.10;99.90
17007;DHT22;8620;51.168;4.154;2023-01-05T15:59:32;13.20;99.90
17007;DHT22;8620;51.168;4.154;2023-01-05T16:02:24;13.20;99.90
17007;DHT22;8620;51.168;4.154;2023-01-05T16:08:21;13.00;99.90
17007;DHT22;8620;51.168;4.154;2023-01-05T16:11:08;12.90;99.90
17007;DHT22;8620;51.168;4.154;2023-01-05T16:13:59;13.00;99.90
17007;DHT22;8620;51.168;4.154;2023-01-05T16:16:29;12.80;99.90
17007;DHT22;8620;51.168;4.154;2023-01-05T16:19:07;12.90;99.90
17007;DHT22;8620;51.168;4.154;2023-01-05T16:21:42;13.00;99.90
17007;DHT22;8620;51.168;4.154;2023-01-05T16:26:54;13.20;99.90
17007;DHT22;8620;51.168;4.154;2023-01-05T16:29:40;13.10;99.90
17007;DHT22;8620;51.168;4.154;2023-01-05T16:32:34;13.00;99.90
17007;DHT22;8620;51.168;4.154;2023-01-05T16:41:00;13.10;99.90
17007;DHT22;8620;51.168;4.154;2023-01-05T16:49:22;12.60;99.90
17007;DHT22;8620;51.168;4.154;2023-01-05T16:52:19;12.60;99.90
17007;DHT22;8620;51.168;4.154;2023-01-05T16:55:12;12.50;99.90
17007;DHT22;8620;51.168;4.154;2023-01-05T16:57:42;12.60;99.90
17007;DHT22;8620;51.168;4.154;2023-01-05T17:03:00;12.60;99.90
17007;DHT22;8620;51.168;4.154;2023-01-05T17:05:30;12.80;99.90
17007;DHT22;8620;51.168;4.154;2023-01-05T17:08:09;12.60;99.90
17007;DHT22;8620;51.168;4.154;2023-01-05T17:10:57;12.60;99.90
17007;DHT22;8620;51.168;4.154;2023-01-05T17:13:36;12.50;99.90
17007;DHT22;8620;51.168;4.154;2023-01-05T17:16:25;12.60;99.90
17007;DHT22;8620;51.168;4.154;2023-01-05T17:18:51;12.50;99.90
17007;DHT22;8620;51.168;4.154;2023-01-05T17:21:22;12.40;99.90
17007;DHT22;8620;51.168;4.154;2023-01-05T17:23:59;12.50;99.90
17007;DHT22;8620;51.168;4.154;2023-01-05T17:26:34;12.60;99.90
17007;DHT22;8620;51.168;4.154;2023-01-05T17:29:05;12.60;99.90
17007;DHT22;8620;51.168;4.154;2023-01-05T17:31:39;12.60;99.90
17007;DHT22;8620;51.168;4.154;2023-01-05T17:34:48;12.80;99.90
17007;DHT22;8620;51.168;4.154;2023-01-05T17:37:18;13.00;99.90
17007;DHT22;8620;51.168;4.154;2023-01-05T17:40:01;12.50;99.90
17007;DHT22;8620;51.168;4.154;2023-01-05T17:42:53;12.50;99.90
17007;DHT22;8620;51.168;4.154;2023-01-05T17:45:47;12.60;99.90
17007;DHT22;8620;51.168;4.154;2023-01-05T17:48:22;12.70;99.90
17007;DHT22;8620;51.168;4.154;2023-01-05T17:51:14;12.60;99.90
17007;DHT22;8620;51.168;4.154;2023-01-05T17:53:42;12.50;99.90
17007;DHT22;8620;51.168;4.154;2023-01-05T17:56:13;12.40;99.90
17007;DHT22;8620;51.168;4.154;2023-01-05T17:58:42;12.50;99.90
17007;DHT22;8620;51.168;4.154;2023-01-05T18:01:31;12.60;99.90
17007;DHT22;8620;51.168;4.154;2023-01-05T18:04:09;12.50;99.90
17007;DHT22;8620;51.168;4.154;2023-01-05T18:06:35;12.60;99.90
17007;DHT22;8620;51.168;4.154;2023-01-05T18:09:01;12.70;99.90
17007;DHT22;8620;51.168;4.154;2023-01-05T18:11:27;12.60;99.90
17007;DHT22;8620;51.168;4.154;2023-01-05T18:13:53;12.30;99.90
17007;DHT22;8620;51.168;4.154;2023-01-05T18:16:19;12.10;99.90
17007;DHT22;8620;51.168;4.154;2023-01-05T18:18:45;12.10;99.90
17007;DHT22;8620;51.168;4.154;2023-01-05T18:21:13;12.00;99.90
17007;DHT22;8620;51.168;4.154;2023-01-05T18:23:42;12.00;99.90
17007;DHT22;8620;51.168;4.154;2023-01-05T18:26:09;12.00;99.90
17007;DHT22;8620;51.168;4.154;2023-01-05T18:28:36;12.00;99.90
17007;DHT22;8620;51.168;4.154;2023-01-05T18:31:21;12.00;99.90
17007;DHT22;8620;51.168;4.154;2023-01-05T18:33:47;12.10;99.90
17007;DHT22;8620;51.168;4.154;2023-01-05T18:36:13;12.10;99.90
17007;DHT22;8620;51.168;4.154;2023-01-05T18:38:40;11.90;99.90
17007;DHT22;8620;51.168;4.154;2023-01-05T18:41:29;12.00;99.90
17007;DHT22;8620;51.168;4.154;2023-01-05T18:43:55;11.90;99.90
17007;DHT22;8620;51.168;4.154;2023-01-05T18:46:21;12.00;99.90
17007;DHT22;8620;51.168;4.154;2023-01-05T18:49:12;12.20;99.90
17007;DHT22;8620;51.168;4.154;2023-01-05T18:52:00;12.10;99.90
17007;DHT22;8620;51.168;4.154;2023-01-05T18:54:54;12.10;99.90
17007;DHT22;8620;51.168;4.154;2023-01-05T18:57:37;12.00;99.90
17007;DHT22;8620;51.168;4.154;2023-01-05T19:00:45;12.00;99.90
17007;DHT22;8620;51.168;4.154;2023-01-05T19:03:36;12.00;99.90
17007;DHT22;8620;51.168;4.154;2023-01-05T19:06:14;11.90;99.90
17007;DHT22;8620;51.168;4.154;2023-01-05T19:09:12;11.90;99.90
17007;DHT22;8620;51.168;4.154;2023-01-05T19:12:17;12.00;99.90
17007;DHT22;8620;51.168;4.154;2023-01-05T19:15:43;11.80;99.90
17007;DHT22;8620;51.168;4.154;2023-01-05T19:19:03;11.80;99.90
17007;DHT22;8620;51.168;4.154;2023-01-05T19:22:08;11.90;99.90
17007;DHT22;8620;51.168;4.154;2023-01-05T19:25:11;11.90;99.90
17007;DHT22;8620;51.168;4.154;2023-01-05T19:27:58;11.80;99.90
17007;DHT22;8620;51.168;4.154;2023-01-05T19:30:29;12.00;99.90
17007;DHT22;8620;51.168;4.154;2023-01-05T19:33:22;11.90;99.90
17007;DHT22;8620;51.168;4.154;2023-01-05T19:36:12;12.00;99.90
17007;DHT22;8620;51.168;4.154;2023-01-05T19:39:02;12.10;99.90
17007;DHT22;8620;51.168;4.154;2023-01-05T19:41:58;12.10;99.90
17007;DHT22;8620;51.168;4.154;2023-01-05T19:44:51;12.30;99.90
17007;DHT22;8620;51.168;4.154;2023-01-05T19:47:37;12.20;99.90
17007;DHT22;8620;51.168;4.154;2023-01-05T19:50:39;12.10;99.90
17007;DHT22;8620;51.168;4.154;2023-01-05T19:53:32;12.30;99.90
17007;DHT22;8620;51.168;4.154;2023-01-05T19:56:12;12.40;99.90
17007;DHT22;8620;51.168;4.154;2023-01-05T19:58:51;12.40;99.90
17007;DHT22;8620;51.168;4.154;2023-01-05T20:01:22;12.60;99.90
17007;DHT22;8620;51.168;4.154;2023-01-05T20:03:56;12.60;99.90
17007;DHT22;8620;51.168;4.154;2023-01-05T20:06:24;12.50;99.90
17007;DHT22;8620;51.168;4.154;2023-01-05T20:08:57;12.50;99.90
17007;DHT22;8620;51.168;4.154;2023-01-05T20:11:34;12.80;99.90
17007;DHT22;8620;51.168;4.154;2023-01-05T20:14:02;12.70;99.90
17007;DHT22;8620;51.168;4.154;2023-01-05T20:16:33;12.40;99.90
17007;DHT22;8620;51.168;4.154;2023-01-05T20:18:59;12.20;99.90
17007;DHT22;8620;51.168;4.154;2023-01-05T20:21:25;12.10;99.90
17007;DHT22;8620;51.168;4.154;2023-01-05T20:23:51;12.20;99.90
17007;DHT22;8620;51.168;4.154;2023-01-05T20:26:22;12.00;99.90
17007;DHT22;8620;51.168;4.154;2023-01-05T20:28:49;12.10;99.90
17007;DHT22;8620;51.168;4.154;2023-01-05T20:33:54;12.30;99.90
17007;DHT22;8620;51.168;4.154;2023-01-05T20:37:06;12.40;99.90
17007;DHT22;8620;51.168;4.154;2023-01-05T20:40:00;12.40;99.90
17007;DHT22;8620;51.168;4.154;2023-01-05T20:42:28;12.60;99.90
17007;DHT22;8620;51.168;4.154;2023-01-05T20:45:02;12.60;99.90
17007;DHT22;8620;51.168;4.154;2023-01-05T20:48:03;12.60;99.90
17007;DHT22;8620;51.168;4.154;2023-01-05T20:50:29;12.50;99.90
17007;DHT22;8620;51.168;4.154;2023-01-05T20:52:55;12.60;99.90
17007;DHT22;8620;51.168;4.154;2023-01-05T20:55:21;12.70;99.90
17007;DHT22;8620;51.168;4.154;2023-01-05T20:57:47;12.70;99.90
17007;DHT22;8620;51.168;4.154;2023-01-05T21:00:16;12.50;99.90
17007;DHT22;8620;51.168;4.154;2023-01-05T21:02:43;12.40;99.90
17007;DHT22;8620;51.168;4.154;2023-01-05T21:05:09;12.40;99.90
17007;DHT22;8620;51.168;4.154;2023-01-05T21:07:36;12.50;99.90
17007;DHT22;8620;51.168;4.154;2023-01-05T21:10:02;12.50;99.90
17007;DHT22;8620;51.168;4.154;2023-01-05T21:12:28;12.30;99.90
17007;DHT22;8620;51.168;4.154;2023-01-05T21:14:57;12.30;99.90
17007;DHT22;8620;51.168;4.154;2023-01-05T21:17:23;12.30;99.90
17007;DHT22;8620;51.168;4.154;2023-01-05T21:19:49;12.50;99.90
17007;DHT22;8620;51.168;4.154;2023-01-05T21:22:15;12.50;99.90
17007;DHT22;8620;51.168;4.154;2023-01-05T21:24:42;12.70;99.90
17007;DHT22;8620;51.168;4.154;2023-01-05T21:27:09;12.70;99.90
17007;DHT22;8620;51.168;4.154;2023-01-05T21:29:35;12.90;99.90
17007;DHT22;8620;51.168;4.154;2023-01-05T21:32:02;12.90;99.90
17007;DHT22;8620;51.168;4.154;2023-01-05T21:34:28;13.00;99.90
17007;DHT22;8620;51.168;4.154;2023-01-05T21:36:54;12.70;99.90
17007;DHT22;8620;51.168;4.154;2023-01-05T21:39:39;12.60;99.90
17007;DHT22;8620;51.168;4.154;2023-01-05T21:42:05;12.50;99.90
17007;DHT22;8620;51.168;4.154;2023-01-05T21:44:50;12.80;99.90
17007;DHT22;8620;51.168;4.154;2023-01-05T21:47:15;12.70;99.90
17007;DHT22;8620;51.168;4.154;2023-01-05T21:49:44;12.70;99.90
17007;DHT22;8620;51.168;4.154;2023-01-05T21:52:10;12.50;99.90
17007;DHT22;8620;51.168;4.154;2023-01-05T21:54:54;12.30;99.90
17007;DHT22;8620;51.168;4.154;2023-01-05T21:57:55;12.50;99.90
17007;DHT22;8620;51.168;4.154;2023-01-05T22:00:22;12.30;99.90
17007;DHT22;8620;51.168;4.154;2023-01-05T22:02:49;12.40;99.90
17007;DHT22;8620;51.168;4.154;2023-01-05T22:05:15;12.40;99.90
17007;DHT22;8620;51.168;4.154;2023-01-05T22:07:41;12.30;99.90
17007;DHT22;8620;51.168;4.154;2023-01-05T22:10:07;12.30;99.90
17007;DHT22;8620;51.168;4.154;2023-01-05T22:12:33;12.30;99.90
17007;DHT22;8620;51.168;4.154;2023-01-05T22:14:59;12.30;99.90
17007;DHT22;8620;51.168;4.154;2023-01-05T22:17:26;12.30;99.90
17007;DHT22;8620;51.168;4.154;2023-01-05T22:19:52;12.40;99.90
17007;DHT22;8620;51.168;4.154;2023-01-05T22:33:39;11.70;99.90
17007;DHT22;8620;51.168;4.154;2023-01-05T22:36:08;11.90;99.90
17007;DHT22;8620;51.168;4.154;2023-01-05T22:38:37;12.20;99.90
17007;DHT22;8620;51.168;4.154;2023-01-05T22:41:06;12.30;99.90
17007;DHT22;8620;51.168;4.154;2023-01-05T22:43:35;12.30;99.90
17007;DHT22;8620;51.168;4.154;2023-01-05T22:46:04;12.40;99.90
17007;DHT22;8620;51.168;4.154;2023-01-05T22:48:44;12.40;99.90
17007;DHT22;8620;51.168;4.154;2023-01-05T22:51:13;12.30;99.90
17007;DHT22;8620;51.168;4.154;2023-01-05T22:53:41;12.10;99.90
17007;DHT22;8620;51.168;4.154;2023-01-05T22:56:09;12.30;99.90
17007;DHT22;8620;51.168;4.154;2023-01-05T22:58:37;12.30;99.90
